N14TT KASE-KDEN
Flight info
| Callsign | N14TT |
|---|---|
| Flight time | N/A |
| Altitude | 27000 |
| Route | POWDR POWDR1 |
| Aircraft | SF50/L-VGD/C |
Departure
| Time | 2026-05-07 21:32 |
|---|---|
| Airport | Aspen-Pitkin County Airport (Sardy Field) (KASE) |
Arrival
| Time | N/A |
|---|---|
| Airport | Denver International Airport (KDEN) |
| Time | Latitude | Longitude | Altitude | Speed | Heading |
|---|---|---|---|---|---|
| 2026-05-07 21:13 | 39.22772 | -106.86948 | 7737 ft | 0 kts | 245° |
| 2026-05-07 21:24 | 39.22772 | -106.86949 | 7738 ft | 0 kts | 245° |
| 2026-05-07 21:25 | 39.22760 | -106.86953 | 7738 ft | 2 kts | 168° |
| 2026-05-07 21:25 | 39.22711 | -106.86941 | 7742 ft | 12 kts | 169° |
| 2026-05-07 21:25 | 39.22625 | -106.86906 | 7749 ft | 15 kts | 159° |
| 2026-05-07 21:25 | 39.22499 | -106.86848 | 7759 ft | 23 kts | 159° |
| 2026-05-07 21:26 | 39.22332 | -106.86768 | 7773 ft | 27 kts | 161° |
| 2026-05-07 21:26 | 39.22167 | -106.86691 | 7788 ft | 11 kts | 161° |
| 2026-05-07 21:26 | 39.22142 | -106.86681 | 7790 ft | 4 kts | 167° |
| 2026-05-07 21:26 | 39.22104 | -106.86659 | 7794 ft | 0 kts | 152° |
| 2026-05-07 21:27 | 39.22092 | -106.86652 | 7795 ft | 8 kts | 157° |
| 2026-05-07 21:27 | 39.21984 | -106.86603 | 7805 ft | 23 kts | 159° |
| 2026-05-07 21:27 | 39.21795 | -106.86516 | 7821 ft | 31 kts | 158° |
| 2026-05-07 21:27 | 39.21587 | -106.86417 | 7836 ft | 32 kts | 156° |
| 2026-05-07 21:28 | 39.21379 | -106.86317 | 7848 ft | 32 kts | 161° |
| 2026-05-07 21:28 | 39.21225 | -106.86244 | 7855 ft | 0 kts | 174° |
| 2026-05-07 21:30 | 39.21191 | -106.86261 | 7858 ft | 7 kts | 233° |
| 2026-05-07 21:31 | 39.21170 | -106.86324 | 7862 ft | 7 kts | 248° |
| 2026-05-07 21:31 | 39.21179 | -106.86343 | 7862 ft | 0 kts | 333° |
| 2026-05-07 21:31 | 39.21241 | -106.86374 | 7860 ft | 33 kts | 341° |
| 2026-05-07 21:31 | 39.21637 | -106.86566 | 7836 ft | 86 kts | 340° |
| 2026-05-07 21:32 | 39.22279 | -106.86841 | 7973 ft | 103 kts | 342° |
| 2026-05-07 21:32 | 39.22907 | -106.87141 | 8351 ft | 92 kts | 340° |
| 2026-05-07 21:32 | 39.23517 | -106.87489 | 8623 ft | 100 kts | 338° |
| 2026-05-07 21:32 | 39.24157 | -106.87846 | 9009 ft | 103 kts | 338° |
| 2026-05-07 21:33 | 39.24839 | -106.88128 | 9382 ft | 105 kts | 332° |
| 2026-05-07 21:33 | 39.25263 | -106.88882 | 9764 ft | 112 kts | 285° |
| 2026-05-07 21:33 | 39.25370 | -106.89872 | 10132 ft | 113 kts | 282° |
| 2026-05-07 21:33 | 39.25456 | -106.90867 | 10489 ft | 112 kts | 281° |
| 2026-05-07 21:34 | 39.25541 | -106.91844 | 10852 ft | 110 kts | 281° |
| 2026-05-07 21:34 | 39.25617 | -106.92807 | 11225 ft | 107 kts | 281° |
| 2026-05-07 21:34 | 39.25690 | -106.93742 | 11572 ft | 103 kts | 279° |
| 2026-05-07 21:34 | 39.25752 | -106.94631 | 11908 ft | 98 kts | 282° |
| 2026-05-07 21:35 | 39.25826 | -106.95494 | 12165 ft | 97 kts | 281° |
| 2026-05-07 21:35 | 39.25894 | -106.96338 | 12448 ft | 96 kts | 283° |
| 2026-05-07 21:35 | 39.25959 | -106.97209 | 12703 ft | 100 kts | 281° |
| 2026-05-07 21:35 | 39.26038 | -106.98126 | 12960 ft | 105 kts | 281° |
| 2026-05-07 21:36 | 39.26228 | -106.99049 | 13217 ft | 110 kts | 309° |
| 2026-05-07 21:36 | 39.26691 | -106.99870 | 13493 ft | 119 kts | 308° |
| 2026-05-07 21:36 | 39.27236 | -107.00731 | 13762 ft | 131 kts | 311° |
| 2026-05-07 21:36 | 39.27882 | -107.01652 | 14027 ft | 146 kts | 313° |
| 2026-05-07 21:37 | 39.28619 | -107.02638 | 14295 ft | 162 kts | 314° |
| 2026-05-07 21:37 | 39.29449 | -107.03722 | 14560 ft | 178 kts | 314° |
| 2026-05-07 21:37 | 39.30350 | -107.04884 | 14819 ft | 192 kts | 315° |
| 2026-05-07 21:37 | 39.31324 | -107.06132 | 15155 ft | 199 kts | 315° |
| 2026-05-07 21:38 | 39.32315 | -107.07398 | 15524 ft | 202 kts | 315° |
| 2026-05-07 21:38 | 39.33310 | -107.08671 | 15887 ft | 203 kts | 315° |
| 2026-05-07 21:38 | 39.34320 | -107.09959 | 16252 ft | 204 kts | 315° |
| 2026-05-07 21:38 | 39.35331 | -107.11250 | 16623 ft | 205 kts | 315° |
| 2026-05-07 21:39 | 39.36328 | -107.12527 | 16983 ft | 205 kts | 315° |
| 2026-05-07 21:39 | 39.37528 | -107.13480 | 17338 ft | 209 kts | 348° |
| 2026-05-07 21:39 | 39.38953 | -107.13025 | 17726 ft | 225 kts | 28° |
| 2026-05-07 21:39 | 39.39873 | -107.11324 | 18108 ft | 245 kts | 68° |
| 2026-05-07 21:40 | 39.40028 | -107.09134 | 18494 ft | 250 kts | 82° |
| 2026-05-07 21:40 | 39.40057 | -107.06897 | 18864 ft | 250 kts | 84° |
| 2026-05-07 21:40 | 39.40067 | -107.04650 | 19228 ft | 249 kts | 84° |
| 2026-05-07 21:40 | 39.40073 | -107.02425 | 19599 ft | 249 kts | 83° |
| 2026-05-07 21:41 | 39.40080 | -107.00222 | 19968 ft | 247 kts | 83° |
| 2026-05-07 21:41 | 39.40087 | -106.98000 | 20337 ft | 246 kts | 83° |
| 2026-05-07 21:41 | 39.40089 | -106.95810 | 20702 ft | 245 kts | 83° |
| 2026-05-07 21:41 | 39.40098 | -106.93621 | 21062 ft | 244 kts | 83° |
| 2026-05-07 21:42 | 39.40102 | -106.91438 | 21425 ft | 243 kts | 83° |
| 2026-05-07 21:42 | 39.40107 | -106.89281 | 21796 ft | 241 kts | 83° |
| 2026-05-07 21:42 | 39.40110 | -106.87117 | 22165 ft | 239 kts | 83° |
| 2026-05-07 21:42 | 39.40111 | -106.85000 | 22531 ft | 237 kts | 82° |
| 2026-05-07 21:43 | 39.40117 | -106.82868 | 22908 ft | 237 kts | 83° |
| 2026-05-07 21:43 | 39.40120 | -106.80750 | 23285 ft | 237 kts | 83° |
| 2026-05-07 21:43 | 39.40122 | -106.78616 | 23679 ft | 236 kts | 82° |
| 2026-05-07 21:43 | 39.40124 | -106.76511 | 24070 ft | 236 kts | 82° |
| 2026-05-07 21:44 | 39.40125 | -106.74423 | 24459 ft | 234 kts | 82° |
| 2026-05-07 21:44 | 39.40126 | -106.72331 | 24846 ft | 233 kts | 82° |
| 2026-05-07 21:44 | 39.40128 | -106.70245 | 25226 ft | 231 kts | 82° |
| 2026-05-07 21:44 | 39.40126 | -106.68171 | 25609 ft | 229 kts | 82° |
| 2026-05-07 21:45 | 39.40125 | -106.66155 | 25994 ft | 226 kts | 81° |
| 2026-05-07 21:45 | 39.40127 | -106.64140 | 26374 ft | 222 kts | 82° |
| 2026-05-07 21:45 | 39.40124 | -106.62166 | 26753 ft | 217 kts | 81° |
| 2026-05-07 21:45 | 39.40123 | -106.60256 | 27053 ft | 215 kts | 81° |
| 2026-05-07 21:46 | 39.40126 | -106.58277 | 27113 ft | 226 kts | 81° |
| 2026-05-07 21:46 | 39.40129 | -106.56207 | 27096 ft | 240 kts | 82° |
| 2026-05-07 21:46 | 39.40123 | -106.54004 | 26989 ft | 252 kts | 82° |
| 2026-05-07 21:46 | 39.40121 | -106.51652 | 26742 ft | 267 kts | 83° |
| 2026-05-07 21:47 | 39.40117 | -106.49219 | 26514 ft | 279 kts | 83° |
| 2026-05-07 21:47 | 39.40114 | -106.46663 | 26278 ft | 287 kts | 83° |
| 2026-05-07 21:47 | 39.40107 | -106.44074 | 26040 ft | 293 kts | 84° |
| 2026-05-07 21:47 | 39.40100 | -106.41454 | 25797 ft | 291 kts | 84° |
| 2026-05-07 21:48 | 39.40094 | -106.38854 | 25546 ft | 288 kts | 84° |
| 2026-05-07 21:48 | 39.40085 | -106.36284 | 25293 ft | 285 kts | 83° |
| 2026-05-07 21:48 | 39.40082 | -106.33750 | 25044 ft | 285 kts | 84° |
| 2026-05-07 21:48 | 39.40073 | -106.31190 | 24785 ft | 284 kts | 84° |
| 2026-05-07 21:49 | 39.40065 | -106.28661 | 24529 ft | 283 kts | 84° |
| 2026-05-07 21:49 | 39.40057 | -106.26115 | 24268 ft | 282 kts | 84° |
| 2026-05-07 21:49 | 39.40048 | -106.23587 | 24017 ft | 282 kts | 84° |
| 2026-05-07 21:49 | 39.40037 | -106.21049 | 23755 ft | 283 kts | 84° |
| 2026-05-07 21:50 | 39.40030 | -106.18526 | 23504 ft | 284 kts | 85° |
| 2026-05-07 21:50 | 39.40019 | -106.15998 | 23255 ft | 284 kts | 85° |
| 2026-05-07 21:50 | 39.40007 | -106.13425 | 23009 ft | 284 kts | 85° |
| 2026-05-07 21:50 | 39.39993 | -106.10889 | 22750 ft | 284 kts | 85° |
| 2026-05-07 21:51 | 39.39982 | -106.08325 | 22487 ft | 284 kts | 85° |
| 2026-05-07 21:51 | 39.39968 | -106.05799 | 22227 ft | 284 kts | 85° |
| 2026-05-07 21:51 | 39.39955 | -106.03254 | 21978 ft | 284 kts | 85° |
| 2026-05-07 21:51 | 39.39940 | -106.00691 | 21725 ft | 289 kts | 85° |
| 2026-05-07 21:52 | 39.39927 | -105.98035 | 21482 ft | 302 kts | 85° |
| 2026-05-07 21:52 | 39.39912 | -105.95265 | 21248 ft | 313 kts | 85° |
| 2026-05-07 21:52 | 39.39896 | -105.92475 | 21005 ft | 316 kts | 86° |
| 2026-05-07 21:52 | 39.39873 | -105.89639 | 20750 ft | 315 kts | 86° |
| 2026-05-07 21:53 | 39.39852 | -105.86807 | 20497 ft | 314 kts | 86° |
| 2026-05-07 21:53 | 39.39836 | -105.83997 | 20240 ft | 314 kts | 86° |
| 2026-05-07 21:53 | 39.39815 | -105.81197 | 19989 ft | 313 kts | 86° |
| 2026-05-07 21:53 | 39.39791 | -105.78353 | 19729 ft | 315 kts | 86° |
| 2026-05-07 21:54 | 39.39774 | -105.75543 | 19490 ft | 318 kts | 86° |
| 2026-05-07 21:54 | 39.39749 | -105.72671 | 19240 ft | 320 kts | 87° |
| 2026-05-07 21:54 | 39.39726 | -105.69822 | 19070 ft | 320 kts | 87° |
| 2026-05-07 21:54 | 39.39702 | -105.66954 | 19037 ft | 319 kts | 87° |
| 2026-05-07 21:55 | 39.39675 | -105.64096 | 19043 ft | 321 kts | 87° |
| 2026-05-07 21:55 | 39.39648 | -105.61192 | 19038 ft | 323 kts | 87° |
| 2026-05-07 21:55 | 39.39623 | -105.58321 | 19033 ft | 324 kts | 87° |
| 2026-05-07 21:55 | 39.39595 | -105.55406 | 19037 ft | 325 kts | 87° |
| 2026-05-07 21:56 | 39.39568 | -105.52498 | 19019 ft | 326 kts | 87° |
| 2026-05-07 21:56 | 39.39563 | -105.49576 | 19014 ft | 324 kts | 82° |
| 2026-05-07 21:56 | 39.40356 | -105.46943 | 19024 ft | 308 kts | 50° |
| 2026-05-07 21:56 | 39.41602 | -105.44704 | 19024 ft | 307 kts | 47° |
| 2026-05-07 21:57 | 39.42871 | -105.42520 | 19026 ft | 307 kts | 47° |
| 2026-05-07 21:57 | 39.44165 | -105.40305 | 19025 ft | 308 kts | 46° |
| 2026-05-07 21:57 | 39.45454 | -105.38110 | 19001 ft | 309 kts | 46° |
| 2026-05-07 21:57 | 39.46766 | -105.35885 | 18731 ft | 307 kts | 46° |
| 2026-05-07 21:58 | 39.48039 | -105.33718 | 18470 ft | 300 kts | 47° |
| 2026-05-07 21:58 | 39.49294 | -105.31583 | 18198 ft | 296 kts | 47° |
| 2026-05-07 21:58 | 39.50515 | -105.29502 | 17947 ft | 292 kts | 47° |
| 2026-05-07 21:58 | 39.51732 | -105.27427 | 17691 ft | 288 kts | 47° |
| 2026-05-07 21:59 | 39.52942 | -105.25366 | 17417 ft | 286 kts | 47° |
| 2026-05-07 21:59 | 39.54131 | -105.23335 | 17142 ft | 284 kts | 47° |
| 2026-05-07 21:59 | 39.55337 | -105.21282 | 16873 ft | 282 kts | 47° |
| 2026-05-07 21:59 | 39.56509 | -105.19279 | 16626 ft | 281 kts | 47° |
| 2026-05-07 22:00 | 39.57678 | -105.17273 | 16362 ft | 280 kts | 47° |
| 2026-05-07 22:00 | 39.58854 | -105.15257 | 16098 ft | 279 kts | 47° |
| 2026-05-07 22:00 | 39.60009 | -105.13287 | 15844 ft | 278 kts | 47° |
| 2026-05-07 22:00 | 39.61171 | -105.11301 | 15585 ft | 277 kts | 47° |
| 2026-05-07 22:01 | 39.62318 | -105.09330 | 15348 ft | 277 kts | 47° |
| 2026-05-07 22:01 | 39.63489 | -105.07318 | 15087 ft | 276 kts | 47° |
| 2026-05-07 22:01 | 39.64648 | -105.05338 | 14831 ft | 276 kts | 47° |
| 2026-05-07 22:01 | 39.65772 | -105.03400 | 14583 ft | 275 kts | 47° |
| 2026-05-07 22:02 | 39.66921 | -105.01427 | 14324 ft | 274 kts | 47° |
| 2026-05-07 22:02 | 39.68069 | -104.99453 | 14063 ft | 273 kts | 47° |
| 2026-05-07 22:02 | 39.69210 | -104.97493 | 13820 ft | 273 kts | 47° |
| 2026-05-07 22:02 | 39.70347 | -104.95541 | 13561 ft | 272 kts | 48° |
| 2026-05-07 22:03 | 39.71470 | -104.93604 | 13310 ft | 272 kts | 48° |
| 2026-05-07 22:03 | 39.72613 | -104.91629 | 13064 ft | 271 kts | 48° |
| 2026-05-07 22:03 | 39.73737 | -104.89692 | 12818 ft | 271 kts | 48° |
| 2026-05-07 22:03 | 39.74881 | -104.87721 | 12574 ft | 270 kts | 48° |
| 2026-05-07 22:04 | 39.75998 | -104.85792 | 12338 ft | 270 kts | 48° |